sensor_id;sensor_type;location;lat;lon;timestamp;P1;durP1;ratioP1;P2;durP2;ratioP2
20802;SDS011;10562;-33.856;151.182;2023-06-19T00:01:18;3.35;;;1.08;;
20802;SDS011;10562;-33.856;151.182;2023-06-19T00:03:51;5.70;;;1.25;;
20802;SDS011;10562;-33.856;151.182;2023-06-19T00:06:22;2.50;;;0.93;;
20802;SDS011;10562;-33.856;151.182;2023-06-19T00:08:52;5.15;;;1.00;;
20802;SDS011;10562;-33.856;151.182;2023-06-19T00:11:23;4.18;;;0.88;;
20802;SDS011;10562;-33.856;151.182;2023-06-19T00:13:54;5.18;;;1.02;;
20802;SDS011;10562;-33.856;151.182;2023-06-19T00:16:25;2.78;;;1.00;;
20802;SDS011;10562;-33.856;151.182;2023-06-19T00:18:58;4.88;;;1.02;;
20802;SDS011;10562;-33.856;151.182;2023-06-19T00:21:29;3.28;;;0.90;;
20802;SDS011;10562;-33.856;151.182;2023-06-19T00:24:00;5.53;;;1.02;;
20802;SDS011;10562;-33.856;151.182;2023-06-19T00:26:31;2.28;;;0.80;;
20802;SDS011;10562;-33.856;151.182;2023-06-19T00:29:01;3.25;;;0.93;;
20802;SDS011;10562;-33.856;151.182;2023-06-19T00:31:33;2.05;;;0.75;;
20802;SDS011;10562;-33.856;151.182;2023-06-19T00:34:06;2.95;;;0.80;;
20802;SDS011;10562;-33.856;151.182;2023-06-19T00:36:37;3.25;;;0.90;;
20802;SDS011;10562;-33.856;151.182;2023-06-19T00:39:09;2.90;;;0.70;;
20802;SDS011;10562;-33.856;151.182;2023-06-19T00:41:39;1.70;;;0.70;;
20802;SDS011;10562;-33.856;151.182;2023-06-19T00:44:14;5.53;;;1.00;;
20802;SDS011;10562;-33.856;151.182;2023-06-19T00:46:45;4.22;;;0.90;;
20802;SDS011;10562;-33.856;151.182;2023-06-19T00:49:17;2.45;;;0.73;;
20802;SDS011;10562;-33.856;151.182;2023-06-19T00:51:48;3.45;;;1.15;;
20802;SDS011;10562;-33.856;151.182;2023-06-19T00:54:21;1.52;;;0.60;;
20802;SDS011;10562;-33.856;151.182;2023-06-19T00:56:52;4.25;;;0.88;;
20802;SDS011;10562;-33.856;151.182;2023-06-19T00:59:23;3.67;;;0.88;;
20802;SDS011;10562;-33.856;151.182;2023-06-19T01:01:55;4.22;;;0.85;;
20802;SDS011;10562;-33.856;151.182;2023-06-19T01:04:28;2.47;;;0.80;;
20802;SDS011;10562;-33.856;151.182;2023-06-19T01:07:00;2.60;;;0.82;;
20802;SDS011;10562;-33.856;151.182;2023-06-19T01:09:37;1.20;;;0.70;;
20802;SDS011;10562;-33.856;151.182;2023-06-19T01:12:13;2.30;;;0.80;;
20802;SDS011;10562;-33.856;151.182;2023-06-19T01:14:49;1.73;;;0.70;;
20802;SDS011;10562;-33.856;151.182;2023-06-19T01:17:22;3.80;;;1.00;;
20802;SDS011;10562;-33.856;151.182;2023-06-19T01:19:55;2.38;;;0.70;;
20802;SDS011;10562;-33.856;151.182;2023-06-19T01:22:29;2.40;;;0.70;;
20802;SDS011;10562;-33.856;151.182;2023-06-19T01:25:00;1.67;;;0.70;;
20802;SDS011;10562;-33.856;151.182;2023-06-19T01:27:32;3.83;;;0.80;;
20802;SDS011;10562;-33.856;151.182;2023-06-19T01:30:04;5.50;;;1.00;;
20802;SDS011;10562;-33.856;151.182;2023-06-19T01:32:38;4.05;;;0.82;;
20802;SDS011;10562;-33.856;151.182;2023-06-19T01:35:17;3.17;;;0.82;;
20802;SDS011;10562;-33.856;151.182;2023-06-19T01:37:54;1.40;;;0.70;;
20802;SDS011;10562;-33.856;151.182;2023-06-19T01:40:26;2.25;;;0.63;;
20802;SDS011;10562;-33.856;151.182;2023-06-19T01:42:59;2.20;;;0.60;;
20802;SDS011;10562;-33.856;151.182;2023-06-19T01:45:30;3.10;;;0.90;;
20802;SDS011;10562;-33.856;151.182;2023-06-19T01:48:01;0.95;;;0.47;;
20802;SDS011;10562;-33.856;151.182;2023-06-19T01:50:32;0.90;;;0.60;;
20802;SDS011;10562;-33.856;151.182;2023-06-19T01:53:05;1.85;;;0.70;;
20802;SDS011;10562;-33.856;151.182;2023-06-19T01:55:35;4.57;;;0.80;;
20802;SDS011;10562;-33.856;151.182;2023-06-19T01:58:06;3.90;;;1.38;;
20802;SDS011;10562;-33.856;151.182;2023-06-19T02:00:37;4.07;;;0.60;;
20802;SDS011;10562;-33.856;151.182;2023-06-19T02:03:08;2.47;;;0.70;;
20802;SDS011;10562;-33.856;151.182;2023-06-19T02:05:39;4.13;;;0.80;;
20802;SDS011;10562;-33.856;151.182;2023-06-19T02:08:12;3.15;;;0.93;;
20802;SDS011;10562;-33.856;151.182;2023-06-19T02:10:43;1.63;;;0.80;;
20802;SDS011;10562;-33.856;151.182;2023-06-19T02:13:13;4.13;;;0.93;;
20802;SDS011;10562;-33.856;151.182;2023-06-19T02:15:44;1.75;;;0.82;;
20802;SDS011;10562;-33.856;151.182;2023-06-19T02:18:15;3.13;;;0.95;;
20802;SDS011;10562;-33.856;151.182;2023-06-19T02:20:46;4.68;;;0.80;;
20802;SDS011;10562;-33.856;151.182;2023-06-19T02:23:18;3.15;;;0.77;;
20802;SDS011;10562;-33.856;151.182;2023-06-19T02:25:49;2.03;;;0.75;;
20802;SDS011;10562;-33.856;151.182;2023-06-19T02:28:20;2.67;;;0.93;;
20802;SDS011;10562;-33.856;151.182;2023-06-19T02:30:51;6.85;;;0.90;;
20802;SDS011;10562;-33.856;151.182;2023-06-19T02:33:22;3.60;;;1.02;;
20802;SDS011;10562;-33.856;151.182;2023-06-19T02:35:53;2.90;;;0.80;;
20802;SDS011;10562;-33.856;151.182;2023-06-19T02:38:27;5.43;;;0.93;;
20802;SDS011;10562;-33.856;151.182;2023-06-19T02:40:58;3.15;;;0.90;;
20802;SDS011;10562;-33.856;151.182;2023-06-19T02:43:30;2.78;;;0.80;;
20802;SDS011;10562;-33.856;151.182;2023-06-19T02:46:01;2.05;;;0.80;;
20802;SDS011;10562;-33.856;151.182;2023-06-19T02:48:33;2.85;;;0.70;;
20802;SDS011;10562;-33.856;151.182;2023-06-19T02:51:05;2.42;;;0.80;;
20802;SDS011;10562;-33.856;151.182;2023-06-19T02:53:37;3.42;;;0.90;;
20802;SDS011;10562;-33.856;151.182;2023-06-19T02:56:09;4.43;;;0.90;;
20802;SDS011;10562;-33.856;151.182;2023-06-19T02:58:40;3.47;;;1.10;;
20802;SDS011;10562;-33.856;151.182;2023-06-19T03:01:11;1.90;;;0.80;;
20802;SDS011;10562;-33.856;151.182;2023-06-19T03:03:42;2.50;;;0.85;;
20802;SDS011;10562;-33.856;151.182;2023-06-19T03:06:14;4.25;;;0.77;;
20802;SDS011;10562;-33.856;151.182;2023-06-19T03:08:49;3.45;;;0.93;;
20802;SDS011;10562;-33.856;151.182;2023-06-19T03:11:19;3.63;;;0.90;;
20802;SDS011;10562;-33.856;151.182;2023-06-19T03:13:51;3.95;;;0.90;;
20802;SDS011;10562;-33.856;151.182;2023-06-19T03:16:22;3.03;;;0.82;;
20802;SDS011;10562;-33.856;151.182;2023-06-19T03:18:53;4.32;;;0.93;;
20802;SDS011;10562;-33.856;151.182;2023-06-19T03:21:24;1.60;;;0.80;;
20802;SDS011;10562;-33.856;151.182;2023-06-19T03:23:57;3.13;;;1.02;;
20802;SDS011;10562;-33.856;151.182;2023-06-19T03:26:28;1.25;;;0.55;;
20802;SDS011;10562;-33.856;151.182;2023-06-19T03:28:58;1.67;;;0.75;;
20802;SDS011;10562;-33.856;151.182;2023-06-19T03:31:29;2.35;;;0.80;;
20802;SDS011;10562;-33.856;151.182;2023-06-19T03:34:00;5.18;;;0.98;;
20802;SDS011;10562;-33.856;151.182;2023-06-19T03:36:31;2.45;;;0.75;;
20802;SDS011;10562;-33.856;151.182;2023-06-19T03:39:03;4.65;;;0.80;;
20802;SDS011;10562;-33.856;151.182;2023-06-19T03:41:34;3.50;;;0.80;;
20802;SDS011;10562;-33.856;151.182;2023-06-19T03:44:06;2.97;;;0.88;;
20802;SDS011;10562;-33.856;151.182;2023-06-19T03:46:45;2.47;;;0.60;;
20802;SDS011;10562;-33.856;151.182;2023-06-19T03:49:17;4.32;;;0.90;;
20802;SDS011;10562;-33.856;151.182;2023-06-19T03:51:48;4.65;;;0.90;;
20802;SDS011;10562;-33.856;151.182;2023-06-19T03:54:22;1.88;;;0.80;;
20802;SDS011;10562;-33.856;151.182;2023-06-19T03:56:53;5.63;;;1.00;;
20802;SDS011;10562;-33.856;151.182;2023-06-19T03:59:24;1.63;;;0.80;;
20802;SDS011;10562;-33.856;151.182;2023-06-19T04:01:55;2.83;;;0.70;;
20802;SDS011;10562;-33.856;151.182;2023-06-19T04:04:25;1.52;;;0.90;;
20802;SDS011;10562;-33.856;151.182;2023-06-19T04:06:56;1.80;;;0.70;;
20802;SDS011;10562;-33.856;151.182;2023-06-19T04:09:29;2.72;;;0.80;;
20802;SDS011;10562;-33.856;151.182;2023-06-19T04:12:00;3.35;;;0.70;;
20802;SDS011;10562;-33.856;151.182;2023-06-19T04:14:30;2.15;;;0.85;;
20802;SDS011;10562;-33.856;151.182;2023-06-19T04:17:01;3.25;;;0.77;;
20802;SDS011;10562;-33.856;151.182;2023-06-19T04:19:32;2.78;;;0.65;;
20802;SDS011;10562;-33.856;151.182;2023-06-19T04:22:03;2.95;;;0.60;;
20802;SDS011;10562;-33.856;151.182;2023-06-19T04:24:36;3.72;;;0.60;;
20802;SDS011;10562;-33.856;151.182;2023-06-19T04:27:07;3.55;;;0.90;;
20802;SDS011;10562;-33.856;151.182;2023-06-19T04:29:37;0.95;;;0.57;;
20802;SDS011;10562;-33.856;151.182;2023-06-19T04:32:08;4.38;;;0.80;;
20802;SDS011;10562;-33.856;151.182;2023-06-19T04:34:39;1.42;;;0.60;;
20802;SDS011;10562;-33.856;151.182;2023-06-19T04:37:12;2.17;;;0.80;;
20802;SDS011;10562;-33.856;151.182;2023-06-19T04:39:47;1.48;;;0.60;;
20802;SDS011;10562;-33.856;151.182;2023-06-19T04:42:18;2.63;;;0.50;;
20802;SDS011;10562;-33.856;151.182;2023-06-19T04:44:49;2.58;;;0.80;;
20802;SDS011;10562;-33.856;151.182;2023-06-19T04:47:21;2.17;;;0.75;;
20802;SDS011;10562;-33.856;151.182;2023-06-19T04:49:52;3.38;;;0.70;;
20802;SDS011;10562;-33.856;151.182;2023-06-19T04:52:23;1.90;;;0.70;;
20802;SDS011;10562;-33.856;151.182;2023-06-19T04:54:56;1.85;;;0.80;;
20802;SDS011;10562;-33.856;151.182;2023-06-19T04:57:27;2.17;;;0.70;;
20802;SDS011;10562;-33.856;151.182;2023-06-19T04:59:58;1.50;;;0.60;;
20802;SDS011;10562;-33.856;151.182;2023-06-19T05:02:31;2.60;;;0.60;;
20802;SDS011;10562;-33.856;151.182;2023-06-19T05:05:02;5.88;;;1.80;;
20802;SDS011;10562;-33.856;151.182;2023-06-19T05:07:33;3.67;;;0.82;;
20802;SDS011;10562;-33.856;151.182;2023-06-19T05:10:06;2.38;;;0.60;;
20802;SDS011;10562;-33.856;151.182;2023-06-19T05:12:37;2.15;;;0.70;;
20802;SDS011;10562;-33.856;151.182;2023-06-19T05:15:08;2.13;;;0.60;;
20802;SDS011;10562;-33.856;151.182;2023-06-19T05:17:39;3.63;;;0.50;;
20802;SDS011;10562;-33.856;151.182;2023-06-19T05:20:12;1.63;;;0.50;;
20802;SDS011;10562;-33.856;151.182;2023-06-19T05:22:43;7.18;;;0.70;;
20802;SDS011;10562;-33.856;151.182;2023-06-19T05:25:16;8.40;;;0.90;;
20802;SDS011;10562;-33.856;151.182;2023-06-19T05:27:46;1.65;;;0.60;;
20802;SDS011;10562;-33.856;151.182;2023-06-19T05:30:18;3.28;;;0.50;;
20802;SDS011;10562;-33.856;151.182;2023-06-19T05:32:49;5.10;;;0.77;;
20802;SDS011;10562;-33.856;151.182;2023-06-19T05:35:19;2.92;;;0.57;;
20802;SDS011;10562;-33.856;151.182;2023-06-19T05:37:51;3.00;;;0.60;;
20802;SDS011;10562;-33.856;151.182;2023-06-19T05:40:25;4.55;;;0.65;;
20802;SDS011;10562;-33.856;151.182;2023-06-19T05:42:56;1.83;;;0.52;;
20802;SDS011;10562;-33.856;151.182;2023-06-19T05:45:27;3.75;;;0.50;;
20802;SDS011;10562;-33.856;151.182;2023-06-19T05:47:58;1.63;;;0.60;;
20802;SDS011;10562;-33.856;151.182;2023-06-19T05:50:29;4.13;;;0.73;;
20802;SDS011;10562;-33.856;151.182;2023-06-19T05:52:59;3.58;;;0.60;;
20802;SDS011;10562;-33.856;151.182;2023-06-19T05:55:32;2.75;;;0.73;;
20802;SDS011;10562;-33.856;151.182;2023-06-19T05:58:03;3.05;;;0.70;;
20802;SDS011;10562;-33.856;151.182;2023-06-19T06:00:33;1.23;;;0.60;;
20802;SDS011;10562;-33.856;151.182;2023-06-19T06:03:04;1.80;;;0.68;;
20802;SDS011;10562;-33.856;151.182;2023-06-19T06:05:35;2.33;;;0.63;;
20802;SDS011;10562;-33.856;151.182;2023-06-19T06:08:06;2.70;;;0.70;;
20802;SDS011;10562;-33.856;151.182;2023-06-19T06:10:38;6.22;;;0.80;;
20802;SDS011;10562;-33.856;151.182;2023-06-19T06:13:09;2.50;;;0.60;;
20802;SDS011;10562;-33.856;151.182;2023-06-19T06:15:40;2.97;;;0.70;;
20802;SDS011;10562;-33.856;151.182;2023-06-19T06:18:11;1.42;;;0.60;;
20802;SDS011;10562;-33.856;151.182;2023-06-19T06:20:41;2.38;;;0.80;;
20802;SDS011;10562;-33.856;151.182;2023-06-19T06:23:12;2.42;;;0.80;;
20802;SDS011;10562;-33.856;151.182;2023-06-19T06:25:45;2.75;;;1.00;;
20802;SDS011;10562;-33.856;151.182;2023-06-19T06:28:16;1.67;;;0.60;;
20802;SDS011;10562;-33.856;151.182;2023-06-19T06:30:46;4.95;;;0.80;;
20802;SDS011;10562;-33.856;151.182;2023-06-19T06:33:17;2.90;;;0.88;;
20802;SDS011;10562;-33.856;151.182;2023-06-19T06:35:48;3.15;;;0.60;;
20802;SDS011;10562;-33.856;151.182;2023-06-19T06:38:19;4.60;;;1.00;;
20802;SDS011;10562;-33.856;151.182;2023-06-19T06:40:52;7.75;;;0.80;;
20802;SDS011;10562;-33.856;151.182;2023-06-19T06:43:23;2.40;;;0.90;;
20802;SDS011;10562;-33.856;151.182;2023-06-19T06:45:54;1.65;;;0.70;;
20802;SDS011;10562;-33.856;151.182;2023-06-19T06:48:24;2.70;;;0.82;;
20802;SDS011;10562;-33.856;151.182;2023-06-19T06:50:56;3.85;;;0.70;;
20802;SDS011;10562;-33.856;151.182;2023-06-19T06:53:27;4.50;;;0.80;;
20802;SDS011;10562;-33.856;151.182;2023-06-19T06:56:03;4.35;;;0.90;;
20802;SDS011;10562;-33.856;151.182;2023-06-19T06:58:33;1.73;;;0.70;;
20802;SDS011;10562;-33.856;151.182;2023-06-19T07:01:05;4.60;;;0.90;;
20802;SDS011;10562;-33.856;151.182;2023-06-19T07:03:36;4.53;;;1.00;;
20802;SDS011;10562;-33.856;151.182;2023-06-19T07:06:06;1.42;;;0.70;;
20802;SDS011;10562;-33.856;151.182;2023-06-19T07:08:37;2.90;;;0.90;;
20802;SDS011;10562;-33.856;151.182;2023-06-19T07:11:10;3.15;;;0.90;;
20802;SDS011;10562;-33.856;151.182;2023-06-19T07:13:40;3.30;;;0.90;;
20802;SDS011;10562;-33.856;151.182;2023-06-19T07:16:11;4.03;;;1.20;;
20802;SDS011;10562;-33.856;151.182;2023-06-19T07:18:42;2.42;;;0.73;;
20802;SDS011;10562;-33.856;151.182;2023-06-19T07:21:13;4.40;;;1.10;;
20802;SDS011;10562;-33.856;151.182;2023-06-19T07:23:44;3.13;;;1.00;;
20802;SDS011;10562;-33.856;151.182;2023-06-19T07:26:18;2.95;;;0.90;;
20802;SDS011;10562;-33.856;151.182;2023-06-19T07:28:48;1.63;;;0.80;;
20802;SDS011;10562;-33.856;151.182;2023-06-19T07:31:19;4.78;;;1.00;;
20802;SDS011;10562;-33.856;151.182;2023-06-19T07:33:50;2.15;;;1.00;;
20802;SDS011;10562;-33.856;151.182;2023-06-19T07:36:21;3.22;;;1.05;;
20802;SDS011;10562;-33.856;151.182;2023-06-19T07:38:51;3.83;;;1.10;;
20802;SDS011;10562;-33.856;151.182;2023-06-19T07:41:26;3.22;;;1.30;;
20802;SDS011;10562;-33.856;151.182;2023-06-19T07:43:56;3.58;;;1.35;;
20802;SDS011;10562;-33.856;151.182;2023-06-19T07:46:27;3.13;;;1.20;;
20802;SDS011;10562;-33.856;151.182;2023-06-19T07:48:58;5.25;;;1.15;;
20802;SDS011;10562;-33.856;151.182;2023-06-19T07:51:29;3.83;;;1.02;;
20802;SDS011;10562;-33.856;151.182;2023-06-19T07:54:00;5.55;;;1.17;;
20802;SDS011;10562;-33.856;151.182;2023-06-19T07:56:32;3.97;;;1.30;;
20802;SDS011;10562;-33.856;151.182;2023-06-19T07:59:03;2.22;;;0.98;;
20802;SDS011;10562;-33.856;151.182;2023-06-19T08:01:34;3.55;;;1.20;;
20802;SDS011;10562;-33.856;151.182;2023-06-19T08:04:05;7.07;;;1.30;;
20802;SDS011;10562;-33.856;151.182;2023-06-19T08:06:35;2.05;;;1.00;;
20802;SDS011;10562;-33.856;151.182;2023-06-19T08:09:06;3.63;;;1.38;;
20802;SDS011;10562;-33.856;151.182;2023-06-19T08:11:39;3.45;;;1.00;;
20802;SDS011;10562;-33.856;151.182;2023-06-19T08:14:10;4.85;;;1.35;;
20802;SDS011;10562;-33.856;151.182;2023-06-19T08:16:40;5.22;;;1.15;;
20802;SDS011;10562;-33.856;151.182;2023-06-19T08:19:11;5.43;;;1.30;;
20802;SDS011;10562;-33.856;151.182;2023-06-19T08:21:42;2.25;;;1.13;;
20802;SDS011;10562;-33.856;151.182;2023-06-19T08:24:13;2.95;;;1.30;;
20802;SDS011;10562;-33.856;151.182;2023-06-19T08:26:45;2.80;;;1.25;;
20802;SDS011;10562;-33.856;151.182;2023-06-19T08:29:17;4.57;;;1.45;;
20802;SDS011;10562;-33.856;151.182;2023-06-19T08:31:48;4.53;;;1.23;;
20802;SDS011;10562;-33.856;151.182;2023-06-19T08:34:19;2.72;;;1.20;;
20802;SDS011;10562;-33.856;151.182;2023-06-19T08:36:50;5.93;;;1.20;;
20802;SDS011;10562;-33.856;151.182;2023-06-19T08:39:21;3.08;;;1.27;;
20802;SDS011;10562;-33.856;151.182;2023-06-19T08:41:54;2.95;;;1.10;;
20802;SDS011;10562;-33.856;151.182;2023-06-19T08:44:24;2.65;;;1.15;;
20802;SDS011;10562;-33.856;151.182;2023-06-19T08:46:57;3.92;;;1.17;;
20802;SDS011;10562;-33.856;151.182;2023-06-19T08:49:29;2.70;;;1.10;;
20802;SDS011;10562;-33.856;151.182;2023-06-19T08:52:02;7.90;;;1.10;;
20802;SDS011;10562;-33.856;151.182;2023-06-19T08:54:34;5.57;;;1.23;;
20802;SDS011;10562;-33.856;151.182;2023-06-19T08:57:11;3.80;;;1.40;;
20802;SDS011;10562;-33.856;151.182;2023-06-19T08:59:48;6.85;;;1.30;;
20802;SDS011;10562;-33.856;151.182;2023-06-19T09:02:18;7.55;;;1.67;;
20802;SDS011;10562;-33.856;151.182;2023-06-19T09:04:49;2.08;;;1.27;;
20802;SDS011;10562;-33.856;151.182;2023-06-19T09:07:20;2.67;;;1.33;;
20802;SDS011;10562;-33.856;151.182;2023-06-19T09:09:51;2.97;;;1.10;;
20802;SDS011;10562;-33.856;151.182;2023-06-19T09:12:26;3.40;;;1.20;;
20802;SDS011;10562;-33.856;151.182;2023-06-19T09:14:56;5.88;;;1.27;;
20802;SDS011;10562;-33.856;151.182;2023-06-19T09:17:27;4.40;;;1.30;;
20802;SDS011;10562;-33.856;151.182;2023-06-19T09:19:58;3.13;;;1.27;;
20802;SDS011;10562;-33.856;151.182;2023-06-19T09:22:31;6.43;;;1.50;;
20802;SDS011;10562;-33.856;151.182;2023-06-19T09:25:02;5.28;;;1.30;;
20802;SDS011;10562;-33.856;151.182;2023-06-19T09:27:37;4.93;;;1.30;;
20802;SDS011;10562;-33.856;151.182;2023-06-19T09:30:14;3.90;;;1.50;;
20802;SDS011;10562;-33.856;151.182;2023-06-19T09:32:45;4.60;;;1.45;;
20802;SDS011;10562;-33.856;151.182;2023-06-19T09:35:16;5.32;;;1.60;;
20802;SDS011;10562;-33.856;151.182;2023-06-19T09:37:47;4.82;;;1.50;;
20802;SDS011;10562;-33.856;151.182;2023-06-19T09:40:18;4.30;;;1.48;;
20802;SDS011;10562;-33.856;151.182;2023-06-19T09:42:51;5.85;;;1.52;;
20802;SDS011;10562;-33.856;151.182;2023-06-19T09:45:25;7.13;;;1.85;;
20802;SDS011;10562;-33.856;151.182;2023-06-19T09:47:57;2.95;;;1.40;;
20802;SDS011;10562;-33.856;151.182;2023-06-19T09:50:28;3.78;;;1.52;;
20802;SDS011;10562;-33.856;151.182;2023-06-19T09:53:00;2.33;;;1.05;;
20802;SDS011;10562;-33.856;151.182;2023-06-19T09:55:31;3.20;;;1.20;;
20802;SDS011;10562;-33.856;151.182;2023-06-19T09:58:08;4.60;;;1.10;;
20802;SDS011;10562;-33.856;151.182;2023-06-19T10:00:40;5.55;;;1.38;;
20802;SDS011;10562;-33.856;151.182;2023-06-19T10:03:11;3.83;;;0.90;;
20802;SDS011;10562;-33.856;151.182;2023-06-19T10:05:43;4.95;;;0.93;;
20802;SDS011;10562;-33.856;151.182;2023-06-19T10:08:13;3.53;;;1.10;;
20802;SDS011;10562;-33.856;151.182;2023-06-19T10:10:54;3.63;;;1.17;;
20802;SDS011;10562;-33.856;151.182;2023-06-19T10:13:33;6.32;;;1.35;;
20802;SDS011;10562;-33.856;151.182;2023-06-19T10:16:04;2.33;;;0.80;;
20802;SDS011;10562;-33.856;151.182;2023-06-19T10:18:44;3.58;;;1.05;;
20802;SDS011;10562;-33.856;151.182;2023-06-19T10:21:18;3.55;;;0.98;;
20802;SDS011;10562;-33.856;151.182;2023-06-19T10:23:53;2.28;;;0.90;;
20802;SDS011;10562;-33.856;151.182;2023-06-19T10:26:32;2.30;;;1.00;;
20802;SDS011;10562;-33.856;151.182;2023-06-19T10:29:15;2.33;;;1.02;;
20802;SDS011;10562;-33.856;151.182;2023-06-19T10:31:46;4.65;;;1.10;;
20802;SDS011;10562;-33.856;151.182;2023-06-19T10:34:17;4.07;;;1.30;;
20802;SDS011;10562;-33.856;151.182;2023-06-19T10:36:48;3.90;;;1.25;;
20802;SDS011;10562;-33.856;151.182;2023-06-19T10:39:18;2.83;;;1.10;;
20802;SDS011;10562;-33.856;151.182;2023-06-19T10:41:49;2.60;;;1.10;;
20802;SDS011;10562;-33.856;151.182;2023-06-19T10:44:22;7.18;;;1.50;;
20802;SDS011;10562;-33.856;151.182;2023-06-19T10:46:53;4.03;;;1.30;;
20802;SDS011;10562;-33.856;151.182;2023-06-19T10:49:25;2.42;;;1.10;;
20802;SDS011;10562;-33.856;151.182;2023-06-19T10:51:57;3.28;;;1.30;;
20802;SDS011;10562;-33.856;151.182;2023-06-19T10:54:29;4.70;;;1.20;;
20802;SDS011;10562;-33.856;151.182;2023-06-19T10:57:03;6.93;;;1.10;;
20802;SDS011;10562;-33.856;151.182;2023-06-19T10:59:36;2.33;;;1.20;;
20802;SDS011;10562;-33.856;151.182;2023-06-19T11:02:09;3.40;;;1.50;;
20802;SDS011;10562;-33.856;151.182;2023-06-19T11:04:40;6.20;;;1.73;;
20802;SDS011;10562;-33.856;151.182;2023-06-19T11:07:10;3.85;;;1.17;;
20802;SDS011;10562;-33.856;151.182;2023-06-19T11:09:42;3.38;;;1.10;;
20802;SDS011;10562;-33.856;151.182;2023-06-19T11:12:18;2.20;;;1.08;;
20802;SDS011;10562;-33.856;151.182;2023-06-19T11:14:51;3.15;;;1.00;;
20802;SDS011;10562;-33.856;151.182;2023-06-19T11:17:22;3.05;;;1.10;;
20802;SDS011;10562;-33.856;151.182;2023-06-19T11:19:52;2.47;;;1.00;;
20802;SDS011;10562;-33.856;151.182;2023-06-19T11:22:36;4.28;;;1.10;;
20802;SDS011;10562;-33.856;151.182;2023-06-19T11:25:07;2.58;;;0.85;;
20802;SDS011;10562;-33.856;151.182;2023-06-19T11:27:40;1.52;;;0.70;;
20802;SDS011;10562;-33.856;151.182;2023-06-19T11:30:29;0.93;;;0.70;;
20802;SDS011;10562;-33.856;151.182;2023-06-19T11:33:01;1.25;;;0.68;;
20802;SDS011;10562;-33.856;151.182;2023-06-19T11:35:35;0.77;;;0.60;;
20802;SDS011;10562;-33.856;151.182;2023-06-19T11:38:06;1.77;;;0.60;;
20802;SDS011;10562;-33.856;151.182;2023-06-19T11:40:40;0.70;;;0.45;;
20802;SDS011;10562;-33.856;151.182;2023-06-19T11:43:11;2.80;;;0.70;;
20802;SDS011;10562;-33.856;151.182;2023-06-19T11:45:59;4.35;;;0.65;;
20802;SDS011;10562;-33.856;151.182;2023-06-19T11:48:31;3.72;;;0.60;;
20802;SDS011;10562;-33.856;151.182;2023-06-19T11:51:05;3.65;;;0.65;;
20802;SDS011;10562;-33.856;151.182;2023-06-19T11:53:36;2.47;;;0.60;;
20802;SDS011;10562;-33.856;151.182;2023-06-19T11:56:06;1.75;;;0.63;;
20802;SDS011;10562;-33.856;151.182;2023-06-19T11:58:38;1.17;;;0.55;;
20802;SDS011;10562;-33.856;151.182;2023-06-19T12:01:13;1.38;;;0.63;;
20802;SDS011;10562;-33.856;151.182;2023-06-19T12:03:43;1.60;;;0.80;;
20802;SDS011;10562;-33.856;151.182;2023-06-19T12:06:15;3.22;;;0.70;;
20802;SDS011;10562;-33.856;151.182;2023-06-19T12:08:46;0.93;;;0.60;;
20802;SDS011;10562;-33.856;151.182;2023-06-19T12:11:17;2.90;;;0.50;;
20802;SDS011;10562;-33.856;151.182;2023-06-19T12:13:48;1.77;;;0.40;;
20802;SDS011;10562;-33.856;151.182;2023-06-19T12:16:21;2.60;;;0.40;;
20802;SDS011;10562;-33.856;151.182;2023-06-19T12:18:53;2.08;;;0.60;;
20802;SDS011;10562;-33.856;151.182;2023-06-19T12:21:24;0.73;;;0.52;;
20802;SDS011;10562;-33.856;151.182;2023-06-19T12:23:55;0.98;;;0.50;;
20802;SDS011;10562;-33.856;151.182;2023-06-19T12:26:26;1.65;;;0.70;;
20802;SDS011;10562;-33.856;151.182;2023-06-19T12:28:57;0.70;;;0.40;;
20802;SDS011;10562;-33.856;151.182;2023-06-19T12:31:31;0.50;;;0.40;;
20802;SDS011;10562;-33.856;151.182;2023-06-19T12:34:02;0.70;;;0.40;;
20802;SDS011;10562;-33.856;151.182;2023-06-19T12:36:34;0.98;;;0.40;;
20802;SDS011;10562;-33.856;151.182;2023-06-19T12:39:04;0.20;;;0.20;;
20802;SDS011;10562;-33.856;151.182;2023-06-19T12:41:42;0.43;;;0.38;;
20802;SDS011;10562;-33.856;151.182;2023-06-19T12:44:13;0.57;;;0.40;;
20802;SDS011;10562;-33.856;151.182;2023-06-19T12:46:46;1.52;;;0.50;;
20802;SDS011;10562;-33.856;151.182;2023-06-19T12:49:17;1.23;;;0.57;;
20802;SDS011;10562;-33.856;151.182;2023-06-19T12:51:48;0.40;;;0.40;;
20802;SDS011;10562;-33.856;151.182;2023-06-19T12:54:19;1.55;;;0.50;;
20802;SDS011;10562;-33.856;151.182;2023-06-19T12:56:50;0.63;;;0.50;;
20802;SDS011;10562;-33.856;151.182;2023-06-19T12:59:20;0.40;;;0.40;;
20802;SDS011;10562;-33.856;151.182;2023-06-19T13:01:53;0.65;;;0.40;;
20802;SDS011;10562;-33.856;151.182;2023-06-19T13:04:24;0.43;;;0.40;;
20802;SDS011;10562;-33.856;151.182;2023-06-19T13:06:55;1.52;;;0.50;;
20802;SDS011;10562;-33.856;151.182;2023-06-19T13:09:25;1.05;;;0.50;;
20802;SDS011;10562;-33.856;151.182;2023-06-19T13:11:56;1.50;;;0.50;;
20802;SDS011;10562;-33.856;151.182;2023-06-19T13:14:28;1.08;;;0.52;;
20802;SDS011;10562;-33.856;151.182;2023-06-19T13:17:01;1.08;;;0.35;;
20802;SDS011;10562;-33.856;151.182;2023-06-19T13:19:32;1.23;;;0.35;;
20802;SDS011;10562;-33.856;151.182;2023-06-19T13:22:03;0.63;;;0.40;;
20802;SDS011;10562;-33.856;151.182;2023-06-19T13:24:34;0.30;;;0.30;;
20802;SDS011;10562;-33.856;151.182;2023-06-19T13:27:04;2.72;;;0.30;;
20802;SDS011;10562;-33.856;151.182;2023-06-19T13:29:35;0.30;;;0.30;;
20802;SDS011;10562;-33.856;151.182;2023-06-19T13:32:08;0.60;;;0.40;;
20802;SDS011;10562;-33.856;151.182;2023-06-19T13:34:39;0.57;;;0.38;;
20802;SDS011;10562;-33.856;151.182;2023-06-19T13:37:10;3.08;;;0.50;;
20802;SDS011;10562;-33.856;151.182;2023-06-19T13:39:41;0.50;;;0.47;;
20802;SDS011;10562;-33.856;151.182;2023-06-19T13:42:11;0.38;;;0.38;;
20802;SDS011;10562;-33.856;151.182;2023-06-19T13:44:42;0.45;;;0.40;;
20802;SDS011;10562;-33.856;151.182;2023-06-19T13:47:15;3.05;;;0.50;;
20802;SDS011;10562;-33.856;151.182;2023-06-19T13:49:46;0.77;;;0.40;;
20802;SDS011;10562;-33.856;151.182;2023-06-19T13:52:17;0.90;;;0.50;;
20802;SDS011;10562;-33.856;151.182;2023-06-19T13:54:48;0.40;;;0.40;;
20802;SDS011;10562;-33.856;151.182;2023-06-19T13:57:19;0.40;;;0.30;;
20802;SDS011;10562;-33.856;151.182;2023-06-19T13:59:50;0.68;;;0.40;;
20802;SDS011;10562;-33.856;151.182;2023-06-19T14:02:23;0.73;;;0.40;;
20802;SDS011;10562;-33.856;151.182;2023-06-19T14:04:53;1.33;;;0.40;;
20802;SDS011;10562;-33.856;151.182;2023-06-19T14:07:24;6.07;;;1.23;;
20802;SDS011;10562;-33.856;151.182;2023-06-19T14:09:55;1.35;;;0.70;;
20802;SDS011;10562;-33.856;151.182;2023-06-19T14:12:25;1.90;;;0.77;;
20802;SDS011;10562;-33.856;151.182;2023-06-19T14:14:56;1.02;;;0.40;;
20802;SDS011;10562;-33.856;151.182;2023-06-19T14:17:29;1.23;;;0.45;;
20802;SDS011;10562;-33.856;151.182;2023-06-19T14:20:01;1.73;;;0.40;;
20802;SDS011;10562;-33.856;151.182;2023-06-19T14:22:33;1.10;;;0.55;;
20802;SDS011;10562;-33.856;151.182;2023-06-19T14:25:04;0.60;;;0.38;;
20802;SDS011;10562;-33.856;151.182;2023-06-19T14:27:35;0.82;;;0.40;;
20802;SDS011;10562;-33.856;151.182;2023-06-19T14:30:06;0.52;;;0.40;;
20802;SDS011;10562;-33.856;151.182;2023-06-19T14:32:39;0.85;;;0.40;;
20802;SDS011;10562;-33.856;151.182;2023-06-19T14:35:10;0.60;;;0.40;;